• Join FlightAware (Why Join?)
  • Login
  • US Flag 
03:00AM EDT


 

Airport Tracker/Info


-or-


 

Live Flight TrackerFlight Track Log ✈ SWA3497 ✈ 17-Apr-2013 ✈ KIAD - KMDW

Flight Track Log - Related Links

Times and Time Zones

All times are in EDT time to prevent confusion due to time zone crossing. See the SWA3497 flight status page for this flight to view local times or setup timezone preferences in your user account.

Time Position Orientation Groundspeed Altitude Reporting Facility
EDT Latitude Longitude Course Direction KTS MPH feet Rate Location/Type
10:12AM 38.9333 -77.5167 253° West 186 214 2,300  Level Potomac TRACON
10:13AM 38.9064 -77.6322 253° West 209 241 7,200 3,180 Climbing Washington Center
10:14AM 38.8967 -77.7122 261° West 244 281 10,200 2,640 Climbing Washington Center
10:15AM 38.9031 -77.8297 274° West 291 335 12,500 2,340 Climbing Washington Center
10:16AM 38.9092 -77.9419 274° West 340 391 14,900 2,640 Climbing Washington Center
10:17AM 38.9208 -78.0836 276° West 368 423 17,800 2,460 Climbing Washington Center
10:18AM 38.9306 -78.2175 275° West 379 436 19,900 2,160 Climbing Washington Center
10:19AM 38.9419 -78.3592 276° West 391 450 22,200 1,500 Climbing Washington Center
10:20AM 38.9531 -78.5064 276° West 405 466 23,000 360 Climbing Washington Center
10:21AM 38.9683 -78.6486 278° West 428 493 23,000 1,500 Level Washington Center
10:23AM 38.9811 -78.9508 273° West 409 471 27,500 1,980 Climbing Washington Center
10:24AM 38.9853 -79.1033 272° West 421 484 29,100 2,040 Climbing Washington Center
10:25AM 38.9931 -79.2614 274° West 427 491 31,600 2,400 Climbing Washington Center
10:26AM 38.9953 -79.3869 271° West 415 478 33,900 2,100 Climbing Washington Center
10:27AM 38.9992 -79.5261 272° West 403 464 35,800 1,800 Climbing Washington Center
10:28AM 38.9989 -79.6622 270° West 397 457 37,500 1,080 Climbing Washington Center
10:29AM 39.0025 -79.7961 272° West 385 443 38,000 240 Climbing Washington Center
10:30AM 39.0056 -79.9458 272° West 385 443 38,000  Level Washington Center
10:31AM 39.0047 -80.0794 270° West 385 443 38,000  Level Washington Center
10:32AM 39.0067 -80.2233 271° West 373 429 38,000  Level Indianapolis Center
10:33AM 39.0094 -80.3569 272° West 375 432 38,000  Level Indianapolis Center
10:34AM 39.0092 -80.4872 270° West 368 423 38,000  Level Indianapolis Center
10:35AM 39.0508 -80.6086 294° West 379 436 38,000  Level Indianapolis Center
10:36AM 39.1125 -80.7511 299° West 383 441 38,000  Level Indianapolis Center
10:37AM 39.1664 -80.8683 301° West 381 438 38,000  Level Indianapolis Center
10:39AM 39.2203 -80.9872 300° West 386 444 38,000  Level Indianapolis Center
10:40AM 39.2731 -81.1081 299° West 389 448 38,000  Level Indianapolis Center
10:41AM 39.3269 -81.2292 300° West 391 450 38,000  Level Indianapolis Center
10:42AM 39.3808 -81.3503 300° West 391 450 38,000  Level Indianapolis Center
10:43AM 39.4358 -81.4736 300° West 396 456 38,000  Level Indianapolis Center
10:44AM 39.5014 -81.6233 300° West 400 460 38,000  Level Indianapolis Center
10:45AM 39.5564 -81.7492 300° West 403 464 38,000  Level Indianapolis Center
10:46AM 39.6122 -81.8747 300° West 404 465 38,000  Level Indianapolis Center
10:47AM 39.6667 -82.0017 299° West 405 466 38,000  Level Indianapolis Center
10:48AM 39.7219 -82.1294 299° West 403 464 38,000 240 Level Indianapolis Center
10:49AM 39.7764 -82.2569 299° West 400 460 38,600 840 Climbing Indianapolis Center
10:50AM 39.8308 -82.3828 299° West 396 456 39,800 660 Climbing Indianapolis Center
10:51AM 39.8931 -82.5272 299° West 392 451 40,000 60 Climbing Indianapolis Center
10:52AM 39.9461 -82.6517 299° West 390 449 40,000  Level Indianapolis Center
10:53AM 39.9986 -82.7764 299° West 391 450 40,000  Level Indianapolis Center
10:54AM 40.0514 -82.9006 299° West 391 450 40,000  Level Indianapolis Center
10:55AM 40.1031 -83.0261 298° West 390 449 40,000  Level Indianapolis Center
10:56AM 40.1564 -83.1519 299° West 394 453 40,000  Level Indianapolis Center
10:57AM 40.2089 -83.2778 299° West 395 455 40,000 -120 Level Indianapolis Center
10:58AM 40.2614 -83.4042 299° West 395 455 39,800 -600 Descending Indianapolis Center
10:59AM 40.3142 -83.5314 299° West 395 455 38,800 -1,080 Descending Indianapolis Center
11:00AM 40.3775 -83.6839 299° West 408 470 37,700 -1,020 Descending Indianapolis Center
11:01AM 40.4322 -83.8200 298° West 418 481 36,800 -1,440 Descending Indianapolis Center
11:02AM 40.4883 -83.9542 299° West 416 479 34,800 -2,400 Descending Indianapolis Center
11:03AM 40.5417 -84.0886 298° West 415 478 32,000 -2,400 Descending Indianapolis Center
11:04AM 40.5981 -84.2264 298° West 423 487 29,900 -1,020 Descending Indianapolis Center
11:05AM 40.6508 -84.3558 298° West 402 463 30,000 60 Climbing Indianapolis Center
11:05AM 40.6622 -84.3844 298° West 401 461 30,000  Level Chicago Center
11:07AM 40.7122 -84.5111 298° West 393 452 30,000  Level Chicago Center
11:08AM 40.7728 -84.6608 298° West 386 444 30,000  Level Chicago Center
11:09AM 40.8233 -84.7878 298° West 390 449 30,000  Level Chicago Center
11:10AM 40.8906 -84.9028 308° West 395 455 30,000  Level Chicago Center
11:11AM 40.9572 -85.0181 307° West 395 455 30,000  Level Chicago Center
11:12AM 41.0239 -85.1336 307° West 395 455 30,000  Level Chicago Center
11:13AM 41.0900 -85.2539 306° West 401 461 30,000 -540 Level Chicago Center
11:14AM 41.1586 -85.3739 307° West 405 466 28,900 -2,100 Descending Chicago Center
11:15AM 41.2258 -85.4939 307° West 404 465 25,800 -2,700 Descending Chicago Center
11:16AM 41.2922 -85.6117 307° West 400 460 23,400 -2,460 Descending Chicago Center
11:17AM 41.3572 -85.7294 306° West 394 453 20,900 -2,460 Descending Chicago Center
11:18AM 41.4136 -85.8497 302° West 385 443 18,400 -2,280 Descending Chicago Center
11:19AM 41.4431 -86.0047 284° West 367 422 16,300 -1,680 Descending Chicago Center
11:20AM 41.4700 -86.1325 286° West 362 417 15,000 -1,860 Descending Chicago Center
11:21AM 41.4947 -86.2578 285° West 356 410 12,500 -2,400 Descending Chicago Center
11:22AM 41.4961 -86.3769 271° West 343 395 10,200 -1,260 Descending Chicago Center
11:23AM 41.4453 -86.4758 236° Southwest 333 383 10,000 -120 Descending Chicago Center
11:24AM 41.4047 -86.5600 237° Southwest 298 343 10,000  Level Chicago Center
11:25AM 41.3697 -86.6464 242° Southwest 277 319 10,000  Level Chicago Center
11:26AM 41.3925 -86.7586 285° West 285 328 10,000  Level Chicago Center
11:27AM 41.4211 -86.8519 292° West 276 318 10,000 -360 Level Chicago Center
11:28AM 41.4486 -86.9453 291° West 275 316 9,300 -1,140 Descending Chicago Center
11:29AM 41.4792 -87.0378 294° West 272 313 7,800 -1,500 Descending Chicago Center
11:30AM 41.5064 -87.1317 291° West 273 314 6,300 -1,320 Descending Chicago Center
11:30AM 41.5167 -87.1667 291° West 273 314 6,000 -840 Descending Chicago TRACON
11:31AM 41.5167 -87.2833 270° West 277 319 5,200 -900 Descending Chicago TRACON
11:32AM 41.5333 -87.3833 283° West 279 321 4,200 -720 Descending Chicago TRACON
11:33AM 41.5447 -87.4294 288° West 275 316 4,000 -120 Descending Chicago Center
11:34AM 41.5594 -87.5358 281° West 259 298 4,000  Level Chicago Center
11:35AM 41.5656 -87.6092 276° West 225 259 4,000  Level Chicago Center
11:36AM 41.5669 -87.6811 272° West 204 235 4,000  Level Chicago Center
11:37AM 41.5689 -87.7539 272° West 198 228 4,000  Level Chicago Center
11:38AM 41.5706 -87.8256 272° West 197 227 4,000  Level Chicago Center
11:39AM 41.5639 -87.8942 263° West 197 227 4,000  Level Chicago Center
11:40AM 41.5836 -87.9633 291° West 196 226 4,000  Level Chicago Center
11:41AM 41.6308 -87.9458 15° North 184 212 4,000 -180 Level Chicago Center
11:42AM 41.6675 -87.9022 42° Northeast 181 208 3,700 -540 Descending Chicago Center
11:43AM 41.7006 -87.8597 44° Northeast 174 200 2,900 -840 Descending Chicago Center
11:44AM 41.7300 -87.8231 43° Northeast 160 184 2,000 -840 Descending Chicago Center
11:45AM 41.7556 -87.7897 44° Northeast 145 167 1,300 -540 Descending Chicago Center
11:46AM 41.7828 -87.7550 44° Northeast 134 154 900 -420 Descending Chicago Center